sensor_id;sensor_type;location;lat;lon;timestamp;temperature;humidity
67279;DHT22;54193;53.746;10.058;2022-09-09T00:05:04;14.19;95.93
67279;DHT22;54193;53.746;10.058;2022-09-09T00:08:00;14.11;95.94
67279;DHT22;54193;53.746;10.058;2022-09-09T00:10:54;14.14;95.96
67279;DHT22;54193;53.746;10.058;2022-09-09T00:13:48;14.17;95.96
67279;DHT22;54193;53.746;10.058;2022-09-09T00:16:40;14.18;95.98
67279;DHT22;54193;53.746;10.058;2022-09-09T00:23:09;14.19;96.00
67279;DHT22;54193;53.746;10.058;2022-09-09T00:26:21;14.21;96.04
67279;DHT22;54193;53.746;10.058;2022-09-09T00:32:00;14.26;96.04
67279;DHT22;54193;53.746;10.058;2022-09-09T00:34:53;14.28;96.04
67279;DHT22;54193;53.746;10.058;2022-09-09T00:37:40;14.29;96.04
67279;DHT22;54193;53.746;10.058;2022-09-09T00:40:35;14.30;96.10
67279;DHT22;54193;53.746;10.058;2022-09-09T00:43:31;14.30;96.04
67279;DHT22;54193;53.746;10.058;2022-09-09T00:46:32;14.29;95.99
67279;DHT22;54193;53.746;10.058;2022-09-09T00:49:48;14.30;96.00
67279;DHT22;54193;53.746;10.058;2022-09-09T00:56:14;14.29;96.02
67279;DHT22;54193;53.746;10.058;2022-09-09T00:59:16;14.32;95.97
67279;DHT22;54193;53.746;10.058;2022-09-09T01:02:18;14.30;96.03
67279;DHT22;54193;53.746;10.058;2022-09-09T01:05:14;14.28;95.99
67279;DHT22;54193;53.746;10.058;2022-09-09T01:08:06;14.32;95.97
67279;DHT22;54193;53.746;10.058;2022-09-09T01:10:56;14.33;95.98
67279;DHT22;54193;53.746;10.058;2022-09-09T01:13:45;14.29;95.95
67279;DHT22;54193;53.746;10.058;2022-09-09T01:16:33;14.26;96.01
67279;DHT22;54193;53.746;10.058;2022-09-09T01:19:30;14.24;96.04
67279;DHT22;54193;53.746;10.058;2022-09-09T01:22:29;14.22;96.03
67279;DHT22;54193;53.746;10.058;2022-09-09T01:28:22;14.26;96.14
67279;DHT22;54193;53.746;10.058;2022-09-09T01:31:14;14.26;96.19
67279;DHT22;54193;53.746;10.058;2022-09-09T01:34:00;14.26;96.15
67279;DHT22;54193;53.746;10.058;2022-09-09T01:39:40;14.32;96.16
67279;DHT22;54193;53.746;10.058;2022-09-09T01:42:26;14.36;96.19
67279;DHT22;54193;53.746;10.058;2022-09-09T01:45:12;14.40;96.19
67279;DHT22;54193;53.746;10.058;2022-09-09T01:47:58;14.39;96.18
67279;DHT22;54193;53.746;10.058;2022-09-09T01:50:43;14.39;96.23
67279;DHT22;54193;53.746;10.058;2022-09-09T01:53:29;14.40;96.25
67279;DHT22;54193;53.746;10.058;2022-09-09T02:02:36;14.39;96.34
67279;DHT22;54193;53.746;10.058;2022-09-09T02:05:40;14.39;96.32
67279;DHT22;54193;53.746;10.058;2022-09-09T02:11:30;14.39;96.30
67279;DHT22;54193;53.746;10.058;2022-09-09T02:14:25;14.33;96.32
67279;DHT22;54193;53.746;10.058;2022-09-09T02:17:16;14.37;96.29
67279;DHT22;54193;53.746;10.058;2022-09-09T02:20:12;14.30;96.28
67279;DHT22;54193;53.746;10.058;2022-09-09T02:22:58;14.35;96.29
67279;DHT22;54193;53.746;10.058;2022-09-09T02:25:45;14.36;96.36
67279;DHT22;54193;53.746;10.058;2022-09-09T02:28:32;14.37;96.31
67279;DHT22;54193;53.746;10.058;2022-09-09T02:31:22;14.39;96.28
67279;DHT22;54193;53.746;10.058;2022-09-09T02:34:10;14.33;96.33
67279;DHT22;54193;53.746;10.058;2022-09-09T02:36:59;14.33;96.33
67279;DHT22;54193;53.746;10.058;2022-09-09T02:39:46;14.33;96.33
67279;DHT22;54193;53.746;10.058;2022-09-09T02:42:32;14.36;96.37
67279;DHT22;54193;53.746;10.058;2022-09-09T02:45:26;14.35;96.35
67279;DHT22;54193;53.746;10.058;2022-09-09T02:48:36;14.29;96.35
67279;DHT22;54193;53.746;10.058;2022-09-09T02:51:56;14.25;96.30
67279;DHT22;54193;53.746;10.058;2022-09-09T02:54:46;14.22;96.25
67279;DHT22;54193;53.746;10.058;2022-09-09T02:57:34;14.22;96.28
67279;DHT22;54193;53.746;10.058;2022-09-09T03:00:27;14.21;96.33
67279;DHT22;54193;53.746;10.058;2022-09-09T03:03:13;14.15;96.27
67279;DHT22;54193;53.746;10.058;2022-09-09T03:06:01;14.14;96.30
67279;DHT22;54193;53.746;10.058;2022-09-09T03:08:47;14.14;96.29
67279;DHT22;54193;53.746;10.058;2022-09-09T03:11:34;14.11;96.30
67279;DHT22;54193;53.746;10.058;2022-09-09T03:14:20;14.09;96.32
67279;DHT22;54193;53.746;10.058;2022-09-09T03:17:09;14.02;96.28
67279;DHT22;54193;53.746;10.058;2022-09-09T03:19:55;13.98;96.26
67279;DHT22;54193;53.746;10.058;2022-09-09T03:22:41;13.98;96.26
67279;DHT22;54193;53.746;10.058;2022-09-09T03:25:27;13.97;96.22
67279;DHT22;54193;53.746;10.058;2022-09-09T03:28:14;13.97;96.25
67279;DHT22;54193;53.746;10.058;2022-09-09T03:31:01;13.97;96.33
67279;DHT22;54193;53.746;10.058;2022-09-09T03:33:47;13.91;96.32
67279;DHT22;54193;53.746;10.058;2022-09-09T03:36:33;13.92;96.39
67279;DHT22;54193;53.746;10.058;2022-09-09T03:39:19;13.94;96.38
67279;DHT22;54193;53.746;10.058;2022-09-09T03:42:05;13.85;96.37
67279;DHT22;54193;53.746;10.058;2022-09-09T03:44:51;13.84;96.37
67279;DHT22;54193;53.746;10.058;2022-09-09T03:47:36;13.85;96.36
67279;DHT22;54193;53.746;10.058;2022-09-09T03:50:22;13.84;96.42
67279;DHT22;54193;53.746;10.058;2022-09-09T03:53:08;13.87;96.42
67279;DHT22;54193;53.746;10.058;2022-09-09T03:55:55;13.88;96.30
67279;DHT22;54193;53.746;10.058;2022-09-09T03:58:41;13.88;96.32
67279;DHT22;54193;53.746;10.058;2022-09-09T04:01:28;13.90;96.37
67279;DHT22;54193;53.746;10.058;2022-09-09T04:04:13;13.90;96.36
67279;DHT22;54193;53.746;10.058;2022-09-09T04:06:59;13.84;96.28
67279;DHT22;54193;53.746;10.058;2022-09-09T04:09:45;13.85;96.27
67279;DHT22;54193;53.746;10.058;2022-09-09T04:12:31;13.82;96.28
67279;DHT22;54193;53.746;10.058;2022-09-09T04:15:17;13.81;96.30
67279;DHT22;54193;53.746;10.058;2022-09-09T04:18:03;13.85;96.21
67279;DHT22;54193;53.746;10.058;2022-09-09T04:20:50;13.73;96.14
67279;DHT22;54193;53.746;10.058;2022-09-09T04:23:36;13.73;96.11
67279;DHT22;54193;53.746;10.058;2022-09-09T04:26:22;13.73;96.15
67279;DHT22;54193;53.746;10.058;2022-09-09T04:29:07;13.74;96.21
67279;DHT22;54193;53.746;10.058;2022-09-09T04:31:53;13.73;96.26
67279;DHT22;54193;53.746;10.058;2022-09-09T04:34:39;13.73;96.32
67279;DHT22;54193;53.746;10.058;2022-09-09T04:37:26;13.74;96.36
67279;DHT22;54193;53.746;10.058;2022-09-09T04:40:12;13.78;96.36
67279;DHT22;54193;53.746;10.058;2022-09-09T04:42:58;13.75;96.34
67279;DHT22;54193;53.746;10.058;2022-09-09T04:45:47;13.64;96.28
67279;DHT22;54193;53.746;10.058;2022-09-09T04:48:34;13.69;96.28
67279;DHT22;54193;53.746;10.058;2022-09-09T04:51:19;13.70;96.27
67279;DHT22;54193;53.746;10.058;2022-09-09T04:54:05;13.70;96.31
67279;DHT22;54193;53.746;10.058;2022-09-09T04:56:51;13.74;96.22
67279;DHT22;54193;53.746;10.058;2022-09-09T04:59:37;13.74;96.16
67279;DHT22;54193;53.746;10.058;2022-09-09T05:02:23;13.71;96.15
67279;DHT22;54193;53.746;10.058;2022-09-09T05:05:08;13.71;96.05
67279;DHT22;54193;53.746;10.058;2022-09-09T05:08:03;13.67;96.07
67279;DHT22;54193;53.746;10.058;2022-09-09T05:10:49;13.70;96.08
67279;DHT22;54193;53.746;10.058;2022-09-09T05:13:35;13.74;96.06
67279;DHT22;54193;53.746;10.058;2022-09-09T05:16:21;13.75;95.98
67279;DHT22;54193;53.746;10.058;2022-09-09T05:19:09;13.71;95.87
67279;DHT22;54193;53.746;10.058;2022-09-09T05:21:57;13.73;95.79
67279;DHT22;54193;53.746;10.058;2022-09-09T05:24:42;13.75;95.69
67279;DHT22;54193;53.746;10.058;2022-09-09T05:27:29;13.71;95.59
67279;DHT22;54193;53.746;10.058;2022-09-09T05:30:16;13.69;95.48
67279;DHT22;54193;53.746;10.058;2022-09-09T05:33:04;13.61;95.45
67279;DHT22;54193;53.746;10.058;2022-09-09T05:36:01;13.60;95.48
67279;DHT22;54193;53.746;10.058;2022-09-09T05:38:48;13.56;95.39
67279;DHT22;54193;53.746;10.058;2022-09-09T05:41:35;13.57;95.35
67279;DHT22;54193;53.746;10.058;2022-09-09T05:44:21;13.53;95.27
67279;DHT22;54193;53.746;10.058;2022-09-09T05:47:09;13.50;95.32
67279;DHT22;54193;53.746;10.058;2022-09-09T05:49:55;13.46;95.21
67279;DHT22;54193;53.746;10.058;2022-09-09T05:52:40;13.47;95.24
67279;DHT22;54193;53.746;10.058;2022-09-09T05:55:26;13.44;95.35
67279;DHT22;54193;53.746;10.058;2022-09-09T05:58:12;13.43;95.26
67279;DHT22;54193;53.746;10.058;2022-09-09T06:01:02;13.38;95.27
67279;DHT22;54193;53.746;10.058;2022-09-09T06:03:50;13.47;95.40
67279;DHT22;54193;53.746;10.058;2022-09-09T06:06:37;13.56;95.50
67279;DHT22;54193;53.746;10.058;2022-09-09T06:09:24;13.60;95.55
67279;DHT22;54193;53.746;10.058;2022-09-09T06:12:10;13.64;95.58
67279;DHT22;54193;53.746;10.058;2022-09-09T06:14:56;13.66;95.53
67279;DHT22;54193;53.746;10.058;2022-09-09T06:17:41;13.73;95.53
67279;DHT22;54193;53.746;10.058;2022-09-09T06:20:27;13.84;95.61
67279;DHT22;54193;53.746;10.058;2022-09-09T06:23:16;13.92;95.68
67279;DHT22;54193;53.746;10.058;2022-09-09T06:28:48;13.92;95.59
67279;DHT22;54193;53.746;10.058;2022-09-09T06:31:35;13.95;95.53
67279;DHT22;54193;53.746;10.058;2022-09-09T06:34:22;14.01;95.51
67279;DHT22;54193;53.746;10.058;2022-09-09T06:37:08;14.11;95.49
67279;DHT22;54193;53.746;10.058;2022-09-09T06:39:54;14.14;95.42
67279;DHT22;54193;53.746;10.058;2022-09-09T06:42:40;14.17;95.53
67279;DHT22;54193;53.746;10.058;2022-09-09T06:45:25;14.22;95.47
67279;DHT22;54193;53.746;10.058;2022-09-09T06:48:11;14.24;95.21
67279;DHT22;54193;53.746;10.058;2022-09-09T06:51:14;14.30;95.15
67279;DHT22;54193;53.746;10.058;2022-09-09T06:54:01;14.36;94.87
67279;DHT22;54193;53.746;10.058;2022-09-09T06:56:47;14.45;94.92
67279;DHT22;54193;53.746;10.058;2022-09-09T06:59:35;14.50;94.72
67279;DHT22;54193;53.746;10.058;2022-09-09T07:02:20;14.60;94.37
67279;DHT22;54193;53.746;10.058;2022-09-09T07:05:07;14.60;94.02
67279;DHT22;54193;53.746;10.058;2022-09-09T07:07:53;14.73;93.77
67279;DHT22;54193;53.746;10.058;2022-09-09T07:10:39;15.02;93.72
67279;DHT22;54193;53.746;10.058;2022-09-09T07:13:25;15.24;93.24
67279;DHT22;54193;53.746;10.058;2022-09-09T07:16:14;15.76;93.13
67279;DHT22;54193;53.746;10.058;2022-09-09T07:19:00;16.15;92.42
67279;DHT22;54193;53.746;10.058;2022-09-09T07:21:47;16.35;90.51
67279;DHT22;54193;53.746;10.058;2022-09-09T07:24:33;16.55;89.66
67279;DHT22;54193;53.746;10.058;2022-09-09T07:27:19;17.08;89.75
67279;DHT22;54193;53.746;10.058;2022-09-09T07:30:05;17.63;86.43
67279;DHT22;54193;53.746;10.058;2022-09-09T07:32:52;17.78;84.45
67279;DHT22;54193;53.746;10.058;2022-09-09T07:35:38;17.68;84.28
67279;DHT22;54193;53.746;10.058;2022-09-09T07:38:23;17.83;83.94
67279;DHT22;54193;53.746;10.058;2022-09-09T07:41:20;18.01;81.35
67279;DHT22;54193;53.746;10.058;2022-09-09T07:44:09;18.34;81.86
67279;DHT22;54193;53.746;10.058;2022-09-09T07:46:56;18.10;81.75
67279;DHT22;54193;53.746;10.058;2022-09-09T07:49:41;17.71;82.64
67279;DHT22;54193;53.746;10.058;2022-09-09T07:52:27;17.89;82.04
67279;DHT22;54193;53.746;10.058;2022-09-09T07:55:13;17.86;81.88
67279;DHT22;54193;53.746;10.058;2022-09-09T07:58:00;17.75;82.61
67279;DHT22;54193;53.746;10.058;2022-09-09T08:00:45;17.85;83.60
67279;DHT22;54193;53.746;10.058;2022-09-09T08:03:31;17.75;82.72
67279;DHT22;54193;53.746;10.058;2022-09-09T08:06:16;17.79;83.57
67279;DHT22;54193;53.746;10.058;2022-09-09T08:09:03;17.78;84.07
67279;DHT22;54193;53.746;10.058;2022-09-09T08:11:49;18.00;83.66
67279;DHT22;54193;53.746;10.058;2022-09-09T08:14:35;18.00;83.01
67279;DHT22;54193;53.746;10.058;2022-09-09T08:17:20;17.93;82.73
67279;DHT22;54193;53.746;10.058;2022-09-09T08:20:06;18.16;84.02
67279;DHT22;54193;53.746;10.058;2022-09-09T08:22:52;18.72;82.47
67279;DHT22;54193;53.746;10.058;2022-09-09T08:25:37;18.96;78.51
67279;DHT22;54193;53.746;10.058;2022-09-09T08:28:23;18.65;79.81
67279;DHT22;54193;53.746;10.058;2022-09-09T08:31:15;18.28;80.73
67279;DHT22;54193;53.746;10.058;2022-09-09T08:34:02;18.11;81.47
67279;DHT22;54193;53.746;10.058;2022-09-09T08:36:49;17.87;82.85
67279;DHT22;54193;53.746;10.058;2022-09-09T08:39:35;18.09;82.51
67279;DHT22;54193;53.746;10.058;2022-09-09T08:42:38;18.54;80.78
67279;DHT22;54193;53.746;10.058;2022-09-09T08:45:34;18.92;78.79
67279;DHT22;54193;53.746;10.058;2022-09-09T08:48:48;19.00;78.01
67279;DHT22;54193;53.746;10.058;2022-09-09T08:51:37;19.37;76.23
67279;DHT22;54193;53.746;10.058;2022-09-09T08:54:25;19.62;75.43
67279;DHT22;54193;53.746;10.058;2022-09-09T08:57:23;19.51;74.10
67279;DHT22;54193;53.746;10.058;2022-09-09T09:00:13;19.32;74.88
67279;DHT22;54193;53.746;10.058;2022-09-09T09:03:15;19.34;76.49
67279;DHT22;54193;53.746;10.058;2022-09-09T09:12:19;19.65;75.30
67279;DHT22;54193;53.746;10.058;2022-09-09T09:15:21;20.09;75.36
67279;DHT22;54193;53.746;10.058;2022-09-09T09:18:10;20.08;74.94
67279;DHT22;54193;53.746;10.058;2022-09-09T09:21:12;20.22;72.05
67279;DHT22;54193;53.746;10.058;2022-09-09T09:24:01;20.50;72.06
67279;DHT22;54193;53.746;10.058;2022-09-09T09:26:46;21.27;70.74
67279;DHT22;54193;53.746;10.058;2022-09-09T09:29:33;21.54;68.09
67279;DHT22;54193;53.746;10.058;2022-09-09T09:32:20;21.57;67.05
67279;DHT22;54193;53.746;10.058;2022-09-09T09:35:12;21.40;68.13
67279;DHT22;54193;53.746;10.058;2022-09-09T09:37:58;22.04;66.88
67279;DHT22;54193;53.746;10.058;2022-09-09T09:43:40;20.81;68.38
67279;DHT22;54193;53.746;10.058;2022-09-09T09:46:27;20.54;67.97
67279;DHT22;54193;53.746;10.058;2022-09-09T09:49:13;20.22;70.11
67279;DHT22;54193;53.746;10.058;2022-09-09T09:52:06;20.14;71.04
67279;DHT22;54193;53.746;10.058;2022-09-09T09:54:53;20.08;70.60
67279;DHT22;54193;53.746;10.058;2022-09-09T09:57:39;20.08;70.29
67279;DHT22;54193;53.746;10.058;2022-09-09T10:00:25;19.92;70.49
67279;DHT22;54193;53.746;10.058;2022-09-09T10:06:10;19.55;74.26
67279;DHT22;54193;53.746;10.058;2022-09-09T10:08:55;19.41;75.04
67279;DHT22;54193;53.746;10.058;2022-09-09T10:11:55;19.35;74.68
67279;DHT22;54193;53.746;10.058;2022-09-09T10:15:01;19.41;75.10
67279;DHT22;54193;53.746;10.058;2022-09-09T10:18:19;19.53;74.60
67279;DHT22;54193;53.746;10.058;2022-09-09T10:28:10;19.78;73.01
67279;DHT22;54193;53.746;10.058;2022-09-09T10:31:19;19.89;74.33
67279;DHT22;54193;53.746;10.058;2022-09-09T10:34:33;20.02;73.70
67279;DHT22;54193;53.746;10.058;2022-09-09T10:37:38;20.22;73.19
67279;DHT22;54193;53.746;10.058;2022-09-09T10:46:51;20.03;71.87
67279;DHT22;54193;53.746;10.058;2022-09-09T10:53:21;20.19;71.46
67279;DHT22;54193;53.746;10.058;2022-09-09T10:56:11;20.22;71.41
67279;DHT22;54193;53.746;10.058;2022-09-09T10:59:05;20.24;71.90
67279;DHT22;54193;53.746;10.058;2022-09-09T11:02:30;20.16;70.00
67279;DHT22;54193;53.746;10.058;2022-09-09T11:05:20;20.36;70.49
67279;DHT22;54193;53.746;10.058;2022-09-09T11:08:11;20.26;70.27
67279;DHT22;54193;53.746;10.058;2022-09-09T11:11:11;20.23;71.11
67279;DHT22;54193;53.746;10.058;2022-09-09T11:14:01;20.20;69.96
67279;DHT22;54193;53.746;10.058;2022-09-09T11:19:41;20.67;68.66
67279;DHT22;54193;53.746;10.058;2022-09-09T11:22:45;20.88;68.23
67279;DHT22;54193;53.746;10.058;2022-09-09T11:25:36;20.94;67.46
67279;DHT22;54193;53.746;10.058;2022-09-09T11:28:28;20.81;67.28
67279;DHT22;54193;53.746;10.058;2022-09-09T11:34:38;20.68;67.88
67279;DHT22;54193;53.746;10.058;2022-09-09T11:40:24;20.57;68.05
67279;DHT22;54193;53.746;10.058;2022-09-09T11:43:31;20.52;68.76
67279;DHT22;54193;53.746;10.058;2022-09-09T11:46:32;20.29;69.25
67279;DHT22;54193;53.746;10.058;2022-09-09T11:49:41;20.14;68.84
67279;DHT22;54193;53.746;10.058;2022-09-09T11:52:44;20.12;69.89
67279;DHT22;54193;53.746;10.058;2022-09-09T11:55:37;20.14;70.00
67279;DHT22;54193;53.746;10.058;2022-09-09T11:58:23;20.26;69.49
67279;DHT22;54193;53.746;10.058;2022-09-09T12:01:29;20.37;69.66
67279;DHT22;54193;53.746;10.058;2022-09-09T12:04:29;20.74;68.40
67279;DHT22;54193;53.746;10.058;2022-09-09T12:07:31;20.89;65.94
67279;DHT22;54193;53.746;10.058;2022-09-09T12:10:29;21.06;66.31
67279;DHT22;54193;53.746;10.058;2022-09-09T12:13:21;21.26;65.61
67279;DHT22;54193;53.746;10.058;2022-09-09T12:16:34;21.40;65.64
67279;DHT22;54193;53.746;10.058;2022-09-09T12:19:21;21.36;66.20
67279;DHT22;54193;53.746;10.058;2022-09-09T12:25:12;21.54;66.00
67279;DHT22;54193;53.746;10.058;2022-09-09T12:28:13;21.63;66.34
67279;DHT22;54193;53.746;10.058;2022-09-09T12:31:08;21.40;65.16
67279;DHT22;54193;53.746;10.058;2022-09-09T12:34:49;21.05;65.71
67279;DHT22;54193;53.746;10.058;2022-09-09T12:37:15;21.15;67.12
67279;DHT22;54193;53.746;10.058;2022-09-09T12:40:53;21.16;66.41
67279;DHT22;54193;53.746;10.058;2022-09-09T12:43:23;21.00;67.56
67279;DHT22;54193;53.746;10.058;2022-09-09T12:46:24;20.74;66.64
67279;DHT22;54193;53.746;10.058;2022-09-09T12:49:34;20.47;67.16
67279;DHT22;54193;53.746;10.058;2022-09-09T12:52:29;20.39;68.77
67279;DHT22;54193;53.746;10.058;2022-09-09T12:55:21;20.40;68.35
67279;DHT22;54193;53.746;10.058;2022-09-09T12:58:07;20.33;68.42
67279;DHT22;54193;53.746;10.058;2022-09-09T13:00:59;20.30;69.38
67279;DHT22;54193;53.746;10.058;2022-09-09T13:03:45;20.27;69.09
67279;DHT22;54193;53.746;10.058;2022-09-09T13:06:32;20.30;70.12
67279;DHT22;54193;53.746;10.058;2022-09-09T13:09:19;20.26;69.25
67279;DHT22;54193;53.746;10.058;2022-09-09T13:12:13;20.26;70.06
67279;DHT22;54193;53.746;10.058;2022-09-09T13:14:59;20.24;69.00
67279;DHT22;54193;53.746;10.058;2022-09-09T13:17:50;20.36;69.61
67279;DHT22;54193;53.746;10.058;2022-09-09T13:20:37;20.27;70.25
67279;DHT22;54193;53.746;10.058;2022-09-09T13:23:32;19.97;71.47
67279;DHT22;54193;53.746;10.058;2022-09-09T13:26:25;19.72;73.14
67279;DHT22;54193;53.746;10.058;2022-09-09T13:29:18;19.71;73.31
67279;DHT22;54193;53.746;10.058;2022-09-09T13:32:17;19.61;74.02
67279;DHT22;54193;53.746;10.058;2022-09-09T13:35:02;19.64;73.96
67279;DHT22;54193;53.746;10.058;2022-09-09T13:37:48;19.53;74.71
67279;DHT22;54193;53.746;10.058;2022-09-09T13:40:34;19.40;75.79
67279;DHT22;54193;53.746;10.058;2022-09-09T13:43:22;19.07;78.43
67279;DHT22;54193;53.746;10.058;2022-09-09T13:52:08;18.49;81.76
67279;DHT22;54193;53.746;10.058;2022-09-09T13:54:54;18.41;82.72
67279;DHT22;54193;53.746;10.058;2022-09-09T13:57:53;18.30;82.93
67279;DHT22;54193;53.746;10.058;2022-09-09T14:00:39;18.14;83.61
67279;DHT22;54193;53.746;10.058;2022-09-09T14:03:25;18.03;84.26
67279;DHT22;54193;53.746;10.058;2022-09-09T14:06:10;17.97;85.60
67279;DHT22;54193;53.746;10.058;2022-09-09T14:08:56;17.76;85.79
67279;DHT22;54193;53.746;10.058;2022-09-09T14:11:42;17.58;86.92
67279;DHT22;54193;53.746;10.058;2022-09-09T14:14:28;17.41;87.70
67279;DHT22;54193;53.746;10.058;2022-09-09T14:17:14;17.27;88.59
67279;DHT22;54193;53.746;10.058;2022-09-09T14:20:03;17.13;89.02
67279;DHT22;54193;53.746;10.058;2022-09-09T14:23:01;17.08;89.53
67279;DHT22;54193;53.746;10.058;2022-09-09T14:25:47;17.02;89.66
67279;DHT22;54193;53.746;10.058;2022-09-09T14:28:33;16.99;89.97
67279;DHT22;54193;53.746;10.058;2022-09-09T14:31:20;16.96;90.32
67279;DHT22;54193;53.746;10.058;2022-09-09T14:34:06;16.93;90.68
67279;DHT22;54193;53.746;10.058;2022-09-09T14:36:52;16.84;90.60
67279;DHT22;54193;53.746;10.058;2022-09-09T14:39:37;16.76;90.48
67279;DHT22;54193;53.746;10.058;2022-09-09T14:42:24;16.72;90.44
67279;DHT22;54193;53.746;10.058;2022-09-09T14:45:10;16.62;90.15
67279;DHT22;54193;53.746;10.058;2022-09-09T14:47:56;16.58;89.95
67279;DHT22;54193;53.746;10.058;2022-09-09T14:50:42;16.58;90.15
67279;DHT22;54193;53.746;10.058;2022-09-09T14:53:28;16.55;90.07
67279;DHT22;54193;53.746;10.058;2022-09-09T14:56:19;16.52;90.21
67279;DHT22;54193;53.746;10.058;2022-09-09T14:59:06;16.53;90.33
67279;DHT22;54193;53.746;10.058;2022-09-09T15:01:52;16.49;89.90
67279;DHT22;54193;53.746;10.058;2022-09-09T15:04:38;16.47;89.84
67279;DHT22;54193;53.746;10.058;2022-09-09T15:07:24;16.53;90.20
67279;DHT22;54193;53.746;10.058;2022-09-09T15:10:10;16.58;90.29
67279;DHT22;54193;53.746;10.058;2022-09-09T15:12:56;16.58;90.19
67279;DHT22;54193;53.746;10.058;2022-09-09T15:15:42;16.58;89.76
67279;DHT22;54193;53.746;10.058;2022-09-09T15:18:29;16.63;90.11
67279;DHT22;54193;53.746;10.058;2022-09-09T15:21:17;16.68;90.20
67279;DHT22;54193;53.746;10.058;2022-09-09T15:24:05;16.72;90.27
67279;DHT22;54193;53.746;10.058;2022-09-09T15:26:53;16.72;89.86
67279;DHT22;54193;53.746;10.058;2022-09-09T15:29:42;16.72;89.76
67279;DHT22;54193;53.746;10.058;2022-09-09T15:32:29;16.70;89.36
67279;DHT22;54193;53.746;10.058;2022-09-09T15:35:15;16.73;89.33
67279;DHT22;54193;53.746;10.058;2022-09-09T15:38:04;16.81;89.66
67279;DHT22;54193;53.746;10.058;2022-09-09T15:40:55;16.87;89.45
67279;DHT22;54193;53.746;10.058;2022-09-09T15:43:46;16.84;89.25
67279;DHT22;54193;53.746;10.058;2022-09-09T15:47:07;16.87;89.39
67279;DHT22;54193;53.746;10.058;2022-09-09T15:49:46;16.86;89.23
67279;DHT22;54193;53.746;10.058;2022-09-09T15:52:31;16.86;89.14
67279;DHT22;54193;53.746;10.058;2022-09-09T15:55:19;16.86;88.98
67279;DHT22;54193;53.746;10.058;2022-09-09T15:58:05;16.86;88.74
67279;DHT22;54193;53.746;10.058;2022-09-09T16:00:51;16.81;88.12
67279;DHT22;54193;53.746;10.058;2022-09-09T16:03:38;16.81;87.40
67279;DHT22;54193;53.746;10.058;2022-09-09T16:06:27;16.96;88.55
67279;DHT22;54193;53.746;10.058;2022-09-09T16:09:13;16.91;86.45
67279;DHT22;54193;53.746;10.058;2022-09-09T16:12:00;16.91;85.45
67279;DHT22;54193;53.746;10.058;2022-09-09T16:14:46;17.02;86.78
67279;DHT22;54193;53.746;10.058;2022-09-09T16:17:32;17.03;85.96
67279;DHT22;54193;53.746;10.058;2022-09-09T16:20:23;17.17;86.97
67279;DHT22;54193;53.746;10.058;2022-09-09T16:23:08;17.18;86.28
67279;DHT22;54193;53.746;10.058;2022-09-09T16:25:54;17.20;85.83
67279;DHT22;54193;53.746;10.058;2022-09-09T16:28:40;17.17;86.04
67279;DHT22;54193;53.746;10.058;2022-09-09T16:31:27;17.15;85.20
67279;DHT22;54193;53.746;10.058;2022-09-09T16:34:15;17.15;86.10
67279;DHT22;54193;53.746;10.058;2022-09-09T16:37:01;17.07;86.28
67279;DHT22;54193;53.746;10.058;2022-09-09T16:39:47;17.13;86.51
67279;DHT22;54193;53.746;10.058;2022-09-09T16:42:33;17.08;87.04
67279;DHT22;54193;53.746;10.058;2022-09-09T16:45:18;17.04;87.12
67279;DHT22;54193;53.746;10.058;2022-09-09T16:48:04;16.99;87.63
67279;DHT22;54193;53.746;10.058;2022-09-09T16:50:49;17.00;88.03
67279;DHT22;54193;53.746;10.058;2022-09-09T16:53:35;16.93;86.94
67279;DHT22;54193;53.746;10.058;2022-09-09T16:56:23;16.91;87.13
67279;DHT22;54193;53.746;10.058;2022-09-09T16:59:21;16.86;87.82
67279;DHT22;54193;53.746;10.058;2022-09-09T17:02:07;16.81;88.17
67279;DHT22;54193;53.746;10.058;2022-09-09T17:04:53;16.79;88.00
67279;DHT22;54193;53.746;10.058;2022-09-09T17:07:38;16.69;88.03
67279;DHT22;54193;53.746;10.058;2022-09-09T17:10:25;16.62;87.98
67279;DHT22;54193;53.746;10.058;2022-09-09T17:13:11;16.58;87.74
67279;DHT22;54193;53.746;10.058;2022-09-09T17:15:58;16.51;88.30
67279;DHT22;54193;53.746;10.058;2022-09-09T17:18:44;16.44;88.60
67279;DHT22;54193;53.746;10.058;2022-09-09T17:21:32;16.38;89.08
67279;DHT22;54193;53.746;10.058;2022-09-09T17:24:17;16.35;88.91
67279;DHT22;54193;53.746;10.058;2022-09-09T17:27:03;16.32;88.60
67279;DHT22;54193;53.746;10.058;2022-09-09T17:29:51;16.32;88.79
67279;DHT22;54193;53.746;10.058;2022-09-09T17:32:37;16.24;88.86
67279;DHT22;54193;53.746;10.058;2022-09-09T17:35:45;16.21;88.73
67279;DHT22;54193;53.746;10.058;2022-09-09T17:38:31;16.11;88.84
67279;DHT22;54193;53.746;10.058;2022-09-09T17:41:22;15.97;89.33
67279;DHT22;54193;53.746;10.058;2022-09-09T17:44:08;15.74;89.97
67279;DHT22;54193;53.746;10.058;2022-09-09T17:46:54;15.66;89.97
67279;DHT22;54193;53.746;10.058;2022-09-09T17:49:41;15.49;90.34
67279;DHT22;54193;53.746;10.058;2022-09-09T17:52:27;15.48;90.53
67279;DHT22;54193;53.746;10.058;2022-09-09T17:55:12;15.35;90.73
67279;DHT22;54193;53.746;10.058;2022-09-09T17:57:58;15.29;91.10
67279;DHT22;54193;53.746;10.058;2022-09-09T18:00:44;15.24;91.30
67279;DHT22;54193;53.746;10.058;2022-09-09T18:03:31;15.14;91.49
67279;DHT22;54193;53.746;10.058;2022-09-09T18:06:19;14.98;91.75
67279;DHT22;54193;53.746;10.058;2022-09-09T18:09:09;14.87;92.08
67279;DHT22;54193;53.746;10.058;2022-09-09T18:11:56;14.85;92.08
67279;DHT22;54193;53.746;10.058;2022-09-09T18:14:42;14.94;92.22
67279;DHT22;54193;53.746;10.058;2022-09-09T18:17:28;14.90;92.38
67279;DHT22;54193;53.746;10.058;2022-09-09T18:20:14;14.80;92.49
67279;DHT22;54193;53.746;10.058;2022-09-09T18:23:01;14.74;92.68
67279;DHT22;54193;53.746;10.058;2022-09-09T18:25:47;14.81;92.84
67279;DHT22;54193;53.746;10.058;2022-09-09T18:28:32;14.66;93.03
67279;DHT22;54193;53.746;10.058;2022-09-09T18:31:20;14.60;93.00
67279;DHT22;54193;53.746;10.058;2022-09-09T18:34:10;14.49;92.94
67279;DHT22;54193;53.746;10.058;2022-09-09T18:36:56;14.46;93.04
67279;DHT22;54193;53.746;10.058;2022-09-09T18:39:41;14.50;93.24
67279;DHT22;54193;53.746;10.058;2022-09-09T18:42:27;14.45;93.38
67279;DHT22;54193;53.746;10.058;2022-09-09T18:45:13;14.37;93.36
67279;DHT22;54193;53.746;10.058;2022-09-09T18:47:58;14.30;93.40
67279;DHT22;54193;53.746;10.058;2022-09-09T18:50:44;14.18;93.59
67279;DHT22;54193;53.746;10.058;2022-09-09T18:53:30;14.18;93.71